Аэропорт: Жезказган. Жезказган

ICAO: UAKD

METAR:
2019/01/21 16:30
UAKD 211630Z 28003MPS 9999 -SN OVC012 M05/M06 Q1026 R22/850045 NOSIG RMK QFE736/0981
METAR:
2017/04/10 09:39
TAF TAF UAKD 101100Z 1009/1021 16012MPS 9999 SCT100